createdAt,value
2018-09-18T00:00:15.150Z,9.70
2018-09-18T00:02:44.791Z,8.05
2018-09-18T00:05:14.310Z,9.23
2018-09-18T00:07:43.982Z,11.12
2018-09-18T00:10:13.468Z,9.65
2018-09-18T00:12:42.986Z,9.78
2018-09-18T00:15:12.630Z,9.23
2018-09-18T00:17:42.025Z,9.85
2018-09-18T00:20:11.548Z,12.18
2018-09-18T00:22:41.184Z,10.50
2018-09-18T00:25:10.826Z,11.63
2018-09-18T00:27:40.588Z,11.40
2018-09-18T00:30:10.105Z,11.80
2018-09-18T00:32:39.742Z,11.60
2018-09-18T00:35:09.143Z,11.10
2018-09-18T00:37:38.781Z,10.75
2018-09-18T00:40:08.439Z,10.43
2018-09-18T00:42:38.063Z,10.63
2018-09-18T00:45:07.459Z,9.83
2018-09-18T00:47:36.860Z,11.95
2018-09-18T00:50:06.258Z,10.43
2018-09-18T00:52:35.538Z,8.95
2018-09-18T00:55:05.299Z,10.48
2018-09-18T00:57:34.819Z,11.18
2018-09-18T01:00:04.334Z,10.25
2018-09-18T01:02:33.734Z,11.40
2018-09-18T01:05:03.496Z,9.05
2018-09-18T01:07:33.255Z,9.83
2018-09-18T01:10:02.781Z,12.78
2018-09-18T01:12:32.171Z,11.60
2018-09-18T01:15:01.576Z,11.83
2018-09-18T01:17:31.118Z,11.57
2018-09-18T01:20:00.852Z,12.98
2018-09-18T01:22:30.611Z,11.45
2018-09-18T01:25:00.129Z,10.60
2018-09-18T01:27:29.408Z,11.00
2018-09-18T01:29:58.932Z,11.03
2018-09-18T01:32:28.572Z,14.05
2018-09-18T01:34:58.208Z,12.03
2018-09-18T01:37:27.725Z,13.00
2018-09-18T01:39:57.368Z,13.13
2018-09-18T01:42:26.765Z,12.40
2018-09-18T01:44:56.401Z,11.75
2018-09-18T01:47:26.048Z,13.10
2018-09-18T01:49:55.323Z,12.30
2018-09-18T01:52:24.603Z,11.65
2018-09-18T01:54:54.003Z,11.15
2018-09-18T01:57:23.645Z,12.40
2018-09-18T01:59:52.924Z,11.43
2018-09-18T02:02:22.322Z,11.63
2018-09-18T02:04:52.080Z,15.25
2018-09-18T02:07:21.479Z,11.55
2018-09-18T02:09:51.118Z,11.75
2018-09-18T02:12:20.757Z,12.53
2018-09-18T02:14:50.401Z,12.40
2018-09-18T02:17:19.916Z,11.40
2018-09-18T02:19:49.798Z,14.05
2018-09-18T02:22:19.556Z,12.15
2018-09-18T02:24:49.081Z,13.50
2018-09-18T02:27:18.594Z,11.88
2018-09-18T02:29:48.004Z,12.70
2018-09-18T02:32:17.756Z,11.73
2018-09-18T02:34:47.397Z,10.88
2018-09-18T02:37:16.794Z,12.47
2018-09-18T02:39:46.311Z,13.32
2018-09-18T02:42:15.832Z,11.08
2018-09-18T02:44:45.470Z,11.40
2018-09-18T02:47:14.990Z,10.60
2018-09-18T02:49:45.350Z,11.78
2018-09-18T02:52:14.987Z,13.25
2018-09-18T02:54:44.629Z,12.50
2018-09-18T02:57:14.270Z,12.73
2018-09-18T02:59:43.786Z,13.25
2018-09-18T03:02:13.186Z,14.33
2018-09-18T03:04:42.946Z,12.03
2018-09-18T03:07:12.349Z,13.20
2018-09-18T03:09:41.985Z,12.07
2018-09-18T03:12:11.265Z,14.07
2018-09-18T03:14:40.665Z,14.83
2018-09-18T03:17:10.183Z,14.03
2018-09-18T03:19:39.706Z,15.43
2018-09-18T03:22:09.102Z,14.90
2018-09-18T03:24:38.621Z,14.43
2018-09-18T03:27:08.022Z,15.35
2018-09-18T03:29:37.418Z,14.58
2018-09-18T03:32:07.061Z,15.15
2018-09-18T03:34:36.699Z,15.85
2018-09-18T03:37:06.581Z,15.88
2018-09-18T03:39:35.980Z,16.50
2018-09-18T03:42:05.380Z,15.03
2018-09-18T03:44:34.777Z,16.73
2018-09-18T03:47:05.018Z,15.38
2018-09-18T03:49:34.778Z,17.82
2018-09-18T03:52:05.136Z,16.62
2018-09-18T03:54:35.260Z,15.00
2018-09-18T03:57:04.776Z,17.17
2018-09-18T03:59:34.297Z,15.75
2018-09-18T04:02:03.693Z,16.25
2018-09-18T04:04:33.330Z,15.78
2018-09-18T04:07:02.859Z,15.68
2018-09-18T04:09:32.490Z,18.12
2018-09-18T04:12:01.889Z,16.95
2018-09-18T04:14:31.478Z,16.17
2018-09-18T04:17:01.050Z,16.32
2018-09-18T04:19:31.528Z,14.58
2018-09-18T04:22:00.810Z,14.68
2018-09-18T04:24:30.207Z,18.98
2018-09-18T04:27:00.567Z,15.25
2018-09-18T04:29:30.208Z,17.27
2018-09-18T04:31:59.727Z,15.00
2018-09-18T04:34:29.128Z,13.50
2018-09-18T04:36:58.407Z,14.23
2018-09-18T04:39:28.765Z,12.13
2018-09-18T04:41:58.502Z,13.80
2018-09-18T04:44:28.043Z,12.75
2018-09-18T04:46:57.322Z,12.43
2018-09-18T04:49:26.963Z,10.00
2018-09-18T04:51:56.241Z,9.90
2018-09-18T04:54:25.531Z,10.80
2018-09-18T04:56:55.042Z,10.47
2018-09-18T04:59:24.799Z,9.67
2018-09-18T05:01:54.351Z,9.13
2018-09-18T05:04:24.365Z,9.57
2018-09-18T05:06:53.957Z,8.70
2018-09-18T05:09:23.696Z,9.37
2018-09-18T05:11:52.876Z,8.90
2018-09-18T05:14:22.597Z,8.63
2018-09-18T05:16:52.757Z,8.07
2018-09-18T05:19:22.275Z,8.23
2018-09-18T05:21:51.794Z,8.37
2018-09-18T05:24:21.437Z,7.20
2018-09-18T05:26:52.274Z,8.00
2018-09-18T05:29:21.914Z,7.07
2018-09-18T05:31:52.209Z,8.33
2018-09-18T05:34:21.675Z,6.70
2018-09-18T05:36:51.073Z,7.67
2018-09-18T05:39:20.473Z,7.07
2018-09-18T05:41:50.661Z,7.07
2018-09-18T05:44:20.229Z,6.10
2018-09-18T05:46:49.628Z,7.30
2018-09-18T05:49:19.386Z,6.40
2018-09-18T05:51:49.027Z,7.27
2018-09-18T05:54:18.426Z,7.37
2018-09-18T05:56:48.067Z,6.60
2018-09-18T05:59:17.465Z,4.90
2018-09-18T06:01:46.868Z,5.20
2018-09-18T06:04:16.265Z,5.73
2018-09-18T06:06:45.907Z,6.37
2018-09-18T06:09:15.661Z,5.17
2018-09-18T06:11:45.062Z,6.60
2018-09-18T06:14:14.821Z,5.50
2018-09-18T06:16:44.341Z,5.80
2018-09-18T06:19:13.879Z,5.03
2018-09-18T06:21:44.218Z,5.13
2018-09-18T06:24:14.459Z,4.00
2018-09-18T06:26:44.100Z,3.80
2018-09-18T06:29:13.738Z,4.47
2018-09-18T06:31:43.256Z,3.97
2018-09-18T06:34:12.625Z,4.00
2018-09-18T06:36:41.937Z,3.97
2018-09-18T06:39:12.177Z,2.80
2018-09-18T06:41:41.814Z,3.00
2018-09-18T06:44:11.334Z,3.70
2018-09-18T06:46:40.975Z,4.50
2018-09-18T06:49:10.613Z,3.97
2018-09-18T06:51:40.856Z,3.97
2018-09-18T06:54:10.252Z,3.23
2018-09-18T06:56:39.657Z,3.97
2018-09-18T06:59:09.290Z,3.73
2018-09-18T07:01:38.811Z,3.93
2018-09-18T07:04:08.208Z,4.23
2018-09-18T07:06:37.610Z,3.50
2018-09-18T07:09:08.692Z,3.93
2018-09-18T07:11:38.391Z,4.10
2018-09-18T07:14:07.727Z,4.43
2018-09-18T07:16:37.489Z,3.90
2018-09-18T07:19:07.367Z,3.73
2018-09-18T07:21:37.126Z,4.00
2018-09-18T07:24:07.605Z,2.93
2018-09-18T07:26:37.130Z,2.60
2018-09-18T07:29:06.644Z,3.37
2018-09-18T07:31:36.162Z,3.83
2018-09-18T07:34:06.043Z,3.00
2018-09-18T07:36:35.683Z,3.67
2018-09-18T07:39:06.999Z,3.10
2018-09-18T07:41:36.522Z,4.17
2018-09-18T07:44:06.163Z,3.40
2018-09-18T07:46:35.920Z,3.63
2018-09-18T07:49:05.919Z,3.23
2018-09-18T07:51:36.041Z,3.40
2018-09-18T07:54:05.558Z,2.77
2018-09-18T07:56:35.081Z,3.00
2018-09-18T07:59:04.600Z,3.20
2018-09-18T08:01:34.478Z,2.27
2018-09-18T08:04:03.996Z,3.17
2018-09-18T08:06:33.463Z,2.60
2018-09-18T08:09:03.880Z,2.70
2018-09-18T08:11:33.396Z,3.30
2018-09-18T08:14:03.006Z,3.40
2018-09-18T08:16:32.433Z,3.10
2018-09-18T08:19:02.113Z,3.63
2018-09-18T08:21:31.596Z,3.97
2018-09-18T08:24:00.751Z,3.13
2018-09-18T08:26:30.346Z,3.90
2018-09-18T08:28:59.789Z,3.30
2018-09-18T08:31:29.551Z,4.03
2018-09-18T08:33:59.370Z,4.03
2018-09-18T08:36:28.831Z,3.47
2018-09-18T08:38:58.229Z,3.53
2018-09-18T08:41:27.752Z,4.03
2018-09-18T08:43:57.145Z,3.00
2018-09-18T08:46:26.546Z,3.30
2018-09-18T08:48:56.923Z,3.63
2018-09-18T08:51:26.789Z,3.40
2018-09-18T08:53:56.450Z,3.37
2018-09-18T08:56:26.185Z,4.40
2018-09-18T08:58:56.879Z,3.60
2018-09-18T09:01:26.333Z,3.30
2018-09-18T09:03:56.074Z,3.50
2018-09-18T09:06:26.276Z,2.50
2018-09-18T09:08:55.714Z,4.10
2018-09-18T09:11:25.100Z,3.33
2018-09-18T09:13:54.880Z,3.37
2018-09-18T09:16:24.502Z,3.90
2018-09-18T09:18:53.906Z,3.70
2018-09-18T09:21:23.373Z,3.80
2018-09-18T09:23:52.815Z,3.43
2018-09-18T09:26:22.385Z,2.80
2018-09-18T09:28:53.566Z,3.47
2018-09-18T09:31:23.077Z,3.50
2018-09-18T09:33:52.708Z,2.70
2018-09-18T09:36:22.114Z,3.83
2018-09-18T09:38:51.688Z,3.63
2018-09-18T09:41:21.492Z,3.00
2018-09-18T09:43:51.108Z,3.30
2018-09-18T09:46:20.776Z,3.40
2018-09-18T09:48:50.412Z,2.20
2018-09-18T09:51:20.791Z,4.00
2018-09-18T09:53:50.052Z,3.03
2018-09-18T09:56:19.809Z,2.57
2018-09-18T09:58:49.214Z,3.20
2018-09-18T10:01:23.646Z,3.30
2018-09-18T10:03:53.870Z,2.53
2018-09-18T10:06:23.525Z,2.97
2018-09-18T10:08:53.048Z,3.87
2018-09-18T10:11:22.444Z,2.50
2018-09-18T10:13:52.088Z,2.53
2018-09-18T10:16:21.605Z,2.37
2018-09-18T10:18:51.417Z,2.77
2018-09-18T10:21:21.005Z,2.63
2018-09-18T10:23:50.639Z,2.50
2018-09-18T10:26:20.475Z,1.70
2018-09-18T10:28:49.929Z,2.20
2018-09-18T10:31:19.466Z,2.57
2018-09-18T10:33:49.234Z,1.47
2018-09-18T10:36:19.406Z,1.80
2018-09-18T10:38:48.959Z,3.00
2018-09-18T10:41:18.381Z,3.23
2018-09-18T10:43:47.907Z,1.60
2018-09-18T10:46:17.901Z,2.17
2018-09-18T10:48:54.912Z,1.83
2018-09-18T10:51:24.717Z,2.70
2018-09-18T10:53:54.355Z,2.40
2018-09-18T10:56:23.756Z,2.30
2018-09-18T10:58:53.275Z,2.50
2018-09-18T11:01:22.792Z,2.53
2018-09-18T11:03:52.444Z,1.80
2018-09-18T11:06:21.865Z,2.40
2018-09-18T11:08:51.483Z,1.93
2018-09-18T11:11:20.934Z,1.97
2018-09-18T11:13:50.617Z,2.10
2018-09-18T11:16:20.947Z,1.70
2018-09-18T11:18:50.789Z,1.33
2018-09-18T11:21:20.398Z,1.97
2018-09-18T11:23:49.944Z,1.27
2018-09-18T11:26:19.578Z,1.40
2018-09-18T11:28:49.070Z,2.63
2018-09-18T11:31:18.492Z,1.30
2018-09-18T11:33:48.114Z,2.10
2018-09-18T11:36:18.346Z,1.10
2018-09-18T11:38:47.985Z,1.90
2018-09-18T11:41:17.623Z,1.80
2018-09-18T11:43:47.024Z,1.37
2018-09-18T11:46:16.666Z,1.47
2018-09-18T11:48:46.423Z,0.90
2018-09-18T11:51:16.114Z,1.90
2018-09-18T11:53:45.584Z,1.07
2018-09-18T11:56:14.864Z,1.90
2018-09-18T11:58:44.381Z,2.03
2018-09-18T12:01:13.544Z,1.20
2018-09-18T12:03:42.697Z,1.83
2018-09-18T12:06:11.861Z,1.33
2018-09-18T12:08:41.309Z,1.13
2018-09-18T12:11:10.421Z,1.37
2018-09-18T12:13:39.457Z,1.27
2018-09-18T12:16:09.217Z,1.57
2018-09-18T12:18:38.857Z,1.57
2018-09-18T12:21:08.256Z,0.97
2018-09-18T12:23:37.292Z,1.17
2018-09-18T12:26:07.897Z,1.10
2018-09-18T12:28:37.502Z,2.20
2018-09-18T12:31:07.052Z,1.83
2018-09-18T12:33:36.214Z,1.80
2018-09-18T12:36:05.495Z,1.57
2018-09-18T12:38:35.015Z,0.87
2018-09-18T12:41:04.169Z,1.87
2018-09-18T12:43:33.330Z,1.13
2018-09-18T12:46:02.489Z,1.40
2018-09-18T12:48:31.721Z,1.60
2018-09-18T12:51:01.575Z,1.53
2018-09-18T12:53:31.287Z,1.93
2018-09-18T12:56:01.004Z,1.60
2018-09-18T12:58:29.997Z,1.37
2018-09-18T13:00:59.243Z,1.50
2018-09-18T13:03:28.886Z,1.60
2018-09-18T13:05:58.456Z,1.43
2018-09-18T13:08:27.801Z,1.43
2018-09-18T13:10:57.203Z,1.20
2018-09-18T13:13:26.366Z,2.83
2018-09-18T13:15:55.544Z,1.17
2018-09-18T13:18:24.929Z,1.40
2018-09-18T13:20:54.598Z,1.70
2018-09-18T13:23:24.199Z,1.40
2018-09-18T13:25:53.835Z,1.53
2018-09-18T13:28:23.116Z,1.63
2018-09-18T13:30:52.648Z,1.83
2018-09-18T13:33:22.277Z,1.97
2018-09-18T13:35:51.674Z,1.90
2018-09-18T13:38:21.079Z,1.40
2018-09-18T13:40:50.343Z,3.37
2018-09-18T13:43:19.394Z,1.83
2018-09-18T13:45:48.675Z,1.83
2018-09-18T13:48:17.952Z,1.70
2018-09-18T13:50:47.472Z,1.63
2018-09-18T13:53:17.236Z,2.73
2018-09-18T13:55:46.391Z,2.40
2018-09-18T13:58:15.549Z,1.73
2018-09-18T14:00:45.072Z,1.93
2018-09-18T14:03:14.589Z,2.07
2018-09-18T14:05:44.109Z,1.90
2018-09-18T14:08:13.720Z,3.53
2018-09-18T14:10:43.630Z,2.20
2018-09-18T14:13:13.026Z,2.83
2018-09-18T14:15:42.667Z,2.03
2018-09-18T14:18:12.193Z,1.57
2018-09-18T14:20:41.224Z,2.80
2018-09-18T14:23:10.745Z,1.87
2018-09-18T14:25:40.386Z,1.97
2018-09-18T14:28:09.676Z,2.10
2018-09-18T14:30:39.415Z,1.87
2018-09-18T14:33:08.950Z,2.13
2018-09-18T14:35:38.701Z,1.93
2018-09-18T14:38:08.149Z,2.23
2018-09-18T14:40:38.469Z,1.97
2018-09-18T14:43:08.098Z,2.37
2018-09-18T14:45:37.496Z,2.60
2018-09-18T14:48:07.138Z,2.20
2018-09-18T14:50:36.657Z,2.13
2018-09-18T14:53:05.936Z,1.67
2018-09-18T14:55:35.337Z,2.27
2018-09-18T14:58:04.976Z,2.33
2018-09-18T15:00:34.733Z,2.57
2018-09-18T15:03:04.612Z,2.30
2018-09-18T15:05:33.893Z,2.73
2018-09-18T15:08:03.414Z,1.60
2018-09-18T15:10:32.942Z,2.90
2018-09-18T15:13:02.246Z,2.27
2018-09-18T15:15:31.886Z,2.97
2018-09-18T15:18:02.329Z,3.00
2018-09-18T15:20:31.887Z,2.83
2018-09-18T15:23:01.256Z,2.33
2018-09-18T15:25:30.768Z,3.10
2018-09-18T15:28:00.070Z,2.80
2018-09-18T15:30:29.811Z,3.27
2018-09-18T15:32:59.208Z,2.20
2018-09-18T15:35:28.967Z,2.50
2018-09-18T15:37:58.607Z,2.77
2018-09-18T15:40:28.843Z,3.10
2018-09-18T15:42:57.924Z,3.20
2018-09-18T15:45:28.170Z,3.97
2018-09-18T15:47:58.503Z,2.50
2018-09-18T15:50:28.843Z,2.83
2018-09-18T15:52:58.128Z,3.20
2018-09-18T15:55:28.002Z,3.03
2018-09-18T15:57:57.610Z,2.80
2018-09-18T16:00:27.284Z,2.30
2018-09-18T16:02:56.923Z,2.80
2018-09-18T16:05:26.443Z,2.07
2018-09-18T16:07:55.839Z,2.97
2018-09-18T16:10:25.718Z,3.17
2018-09-18T16:12:55.238Z,2.67
2018-09-18T16:15:25.772Z,2.63
2018-09-18T16:17:55.475Z,1.97
2018-09-18T16:20:24.992Z,2.63
2018-09-18T16:22:54.548Z,3.13
2018-09-18T16:25:24.154Z,2.73
2018-09-18T16:27:53.675Z,2.93
2018-09-18T16:30:23.074Z,2.73
2018-09-18T16:32:53.431Z,2.47
2018-09-18T16:35:22.805Z,3.43
2018-09-18T16:37:52.232Z,2.93
2018-09-18T16:40:21.776Z,3.87
2018-09-18T16:42:51.632Z,2.70
2018-09-18T16:45:21.542Z,2.17
2018-09-18T16:47:50.910Z,2.20
2018-09-18T16:50:20.431Z,2.13
2018-09-18T16:52:49.827Z,3.03
2018-09-18T16:55:19.364Z,4.70
2018-09-18T16:57:48.985Z,4.10
2018-09-18T17:00:18.508Z,3.90
2018-09-18T17:02:48.145Z,3.70
2018-09-18T17:05:17.783Z,2.93
2018-09-18T17:07:47.422Z,2.40
2018-09-18T17:10:16.942Z,3.20
2018-09-18T17:12:46.583Z,3.30
2018-09-18T17:15:16.104Z,3.63
2018-09-18T17:17:45.739Z,3.13
2018-09-18T17:20:15.348Z,3.13
2018-09-18T17:22:44.897Z,3.37
2018-09-18T17:25:15.256Z,3.40
2018-09-18T17:27:44.483Z,3.30
2018-09-18T17:30:13.701Z,3.50
2018-09-18T17:32:43.340Z,3.30
2018-09-18T17:35:13.230Z,3.70
2018-09-18T17:37:42.614Z,3.60
2018-09-18T17:40:12.379Z,3.87
2018-09-18T17:42:41.897Z,2.73
2018-09-18T17:45:11.413Z,3.53
2018-09-18T17:47:41.347Z,2.63
2018-09-18T17:50:11.708Z,3.63
2018-09-18T17:52:41.171Z,3.90
2018-09-18T17:55:10.809Z,2.83
2018-09-18T17:57:40.212Z,3.50
2018-09-18T18:00:09.972Z,4.10
2018-09-18T18:02:39.251Z,3.67
2018-09-18T18:05:08.888Z,3.50
2018-09-18T18:07:38.528Z,4.30
2018-09-18T18:10:08.169Z,5.03
2018-09-18T18:12:38.508Z,4.63
2018-09-18T18:15:08.170Z,4.17
2018-09-18T18:17:38.198Z,7.63
2018-09-18T18:20:08.652Z,5.03
2018-09-18T18:22:38.164Z,4.40
2018-09-18T18:25:07.687Z,4.57
2018-09-18T18:27:37.235Z,5.33
2018-09-18T18:30:07.090Z,4.37
2018-09-18T18:32:36.840Z,5.10
2018-09-18T18:35:06.726Z,5.27
2018-09-18T18:37:36.122Z,5.00
2018-09-18T18:40:06.000Z,5.40
2018-09-18T18:42:35.639Z,4.90
2018-09-18T18:45:05.420Z,5.63
2018-09-18T18:47:35.312Z,5.30
2018-09-18T18:50:04.920Z,5.77
2018-09-18T18:52:34.348Z,6.20
2018-09-18T18:55:04.324Z,5.30
2018-09-18T18:57:33.834Z,5.27
2018-09-18T19:00:03.475Z,5.00
2018-09-18T19:02:33.235Z,6.50
2018-09-18T19:05:03.715Z,6.07
2018-09-18T19:07:32.992Z,6.23
2018-09-18T19:10:02.271Z,5.80
2018-09-18T19:12:32.032Z,7.47
2018-09-18T19:15:01.561Z,5.27
2018-09-18T19:17:30.952Z,4.97
2018-09-18T19:20:00.468Z,5.80
2018-09-18T19:22:29.989Z,4.60
2018-09-18T19:24:59.637Z,5.57
2018-09-18T19:27:29.065Z,7.27
2018-09-18T19:29:58.471Z,5.17
2018-09-18T19:32:27.946Z,5.43
2018-09-18T19:34:58.068Z,7.13
2018-09-18T19:37:27.501Z,5.97
2018-09-18T19:39:57.225Z,6.33
2018-09-18T19:42:26.745Z,5.53
2018-09-18T19:44:56.225Z,5.70
2018-09-18T19:47:26.960Z,5.20
2018-09-18T19:49:56.503Z,5.47
2018-09-18T19:52:26.093Z,5.50
2018-09-18T19:54:55.544Z,6.33
2018-09-18T19:57:25.183Z,5.63
2018-09-18T19:59:54.822Z,6.00
2018-09-18T20:02:24.235Z,4.20
2018-09-18T20:04:53.619Z,5.60
2018-09-18T20:07:23.019Z,4.97
2018-09-18T20:09:52.717Z,5.10
2018-09-18T20:12:22.179Z,4.57
2018-09-18T20:14:51.740Z,5.23
2018-09-18T20:17:21.454Z,5.53
2018-09-18T20:19:51.937Z,6.10
2018-09-18T20:22:21.578Z,6.10
2018-09-18T20:24:51.332Z,5.77
2018-09-18T20:27:20.798Z,6.27
2018-09-18T20:29:51.215Z,5.93
2018-09-18T20:32:20.733Z,6.93
2018-09-18T20:34:50.254Z,6.57
2018-09-18T20:37:19.654Z,7.00
2018-09-18T20:39:49.173Z,6.40
2018-09-18T20:42:18.807Z,6.67
2018-09-18T20:44:48.332Z,7.63
2018-09-18T20:47:17.728Z,7.83
2018-09-18T20:49:52.889Z,8.87
2018-09-18T20:52:22.525Z,7.30
2018-09-18T20:54:52.286Z,6.43
2018-09-18T20:57:21.924Z,7.30
2018-09-18T20:59:51.448Z,8.10
2018-09-18T21:02:21.207Z,9.70
2018-09-18T21:04:51.568Z,7.90
2018-09-18T21:07:21.202Z,7.40
2018-09-18T21:09:50.601Z,7.73
2018-09-18T21:12:20.841Z,8.00
2018-09-18T21:14:50.243Z,8.23
2018-09-18T21:17:19.882Z,12.23
2018-09-18T21:19:49.640Z,9.60
2018-09-18T21:22:19.161Z,9.90
2018-09-18T21:24:48.678Z,9.13
2018-09-18T21:27:18.076Z,8.77
2018-09-18T21:29:47.720Z,8.07
2018-09-18T21:32:17.261Z,7.30
2018-09-18T21:34:47.235Z,6.40
2018-09-18T21:37:16.873Z,7.87
2018-09-18T21:39:47.234Z,7.83
2018-09-18T21:42:16.872Z,8.10
2018-09-18T21:44:46.273Z,7.93
2018-09-18T21:47:16.513Z,8.63
2018-09-18T21:49:47.111Z,8.60
2018-09-18T21:52:16.750Z,8.57
2018-09-18T21:54:46.272Z,7.47
2018-09-18T21:57:15.911Z,10.80
2018-09-18T21:59:45.547Z,8.40
2018-09-18T22:02:15.068Z,9.87
2018-09-18T22:04:44.587Z,10.40
2018-09-18T22:07:14.451Z,9.97
2018-09-18T22:09:44.591Z,8.67
2018-09-18T22:12:14.966Z,11.37
2018-09-18T22:14:45.119Z,10.77
2018-09-18T22:17:14.827Z,9.50
2018-09-18T22:19:44.467Z,8.80
2018-09-18T22:22:14.164Z,9.23
2018-09-18T22:24:43.747Z,9.90
2018-09-18T22:27:13.276Z,9.03
2018-09-18T22:29:43.743Z,9.90
2018-09-18T22:32:13.259Z,9.73
2018-09-18T22:34:42.779Z,10.10
2018-09-18T22:37:12.179Z,10.17
2018-09-18T22:39:41.822Z,10.47
2018-09-18T22:42:11.490Z,10.03
2018-09-18T22:44:41.456Z,10.60
2018-09-18T22:47:11.159Z,11.20
2018-09-18T22:49:40.494Z,11.20
2018-09-18T22:52:09.895Z,10.77
2018-09-18T22:54:40.014Z,10.03
2018-09-18T22:57:10.412Z,10.17
2018-09-18T22:59:40.374Z,9.87
2018-09-18T23:02:09.775Z,11.33
2018-09-18T23:04:39.533Z,11.20
2018-09-18T23:07:09.175Z,12.07
2018-09-18T23:09:38.571Z,11.00
2018-09-18T23:12:07.857Z,9.43
2018-09-18T23:14:37.370Z,10.27
2018-09-18T23:17:06.908Z,10.83
2018-09-18T23:19:36.654Z,10.50
2018-09-18T23:22:06.085Z,10.97
2018-09-18T23:24:35.447Z,10.47
2018-09-18T23:27:05.141Z,10.40
2018-09-18T23:29:34.967Z,12.33
2018-09-18T23:32:04.483Z,11.37
2018-09-18T23:34:34.129Z,9.77
2018-09-18T23:37:04.607Z,10.53
2018-09-18T23:39:34.124Z,10.37
2018-09-18T23:42:03.554Z,11.53
2018-09-18T23:44:33.283Z,11.43
2018-09-18T23:47:02.922Z,10.50
2018-09-18T23:49:32.496Z,14.63
2018-09-18T23:52:01.843Z,11.17
2018-09-18T23:54:31.243Z,12.40
2018-09-18T23:57:00.879Z,12.33
2018-09-18T23:59:30.399Z,10.13
